createdAt,value
2018-02-25T00:01:37.905Z,36.20
2018-02-25T00:04:04.497Z,36.20
2018-02-25T00:06:31.077Z,35.90
2018-02-25T00:08:58.471Z,35.80
2018-02-25T00:11:25.026Z,35.80
2018-02-25T00:13:51.578Z,36.20
2018-02-25T00:16:18.954Z,36.30
2018-02-25T00:18:46.263Z,36.50
2018-02-25T00:21:12.846Z,36.50
2018-02-25T00:23:39.410Z,36.50
2018-02-25T00:26:06.746Z,36.40
2018-02-25T00:28:34.097Z,36.70
2018-02-25T00:31:00.715Z,36.70
2018-02-25T00:33:27.316Z,36.80
2018-02-25T00:35:53.886Z,36.50
2018-02-25T00:38:20.599Z,37.10
2018-02-25T00:40:47.138Z,37.20
2018-02-25T00:43:13.709Z,37.00
2018-02-25T00:45:40.567Z,37.10
2018-02-25T00:48:07.193Z,37.00
2018-02-25T00:50:33.733Z,37.40
2018-02-25T00:53:01.042Z,37.20
2018-02-25T00:55:27.610Z,37.20
2018-02-25T00:57:54.166Z,37.00
2018-02-25T01:00:21.629Z,36.70
2018-02-25T01:02:48.949Z,37.50
2018-02-25T01:05:15.566Z,37.40
2018-02-25T01:07:42.147Z,37.90
2018-02-25T01:10:08.770Z,37.70
2018-02-25T01:12:35.311Z,37.50
2018-02-25T01:15:02.759Z,37.80
2018-02-25T01:17:29.285Z,37.80
2018-02-25T01:19:56.594Z,37.60
2018-02-25T01:22:23.150Z,37.50
2018-02-25T01:24:49.959Z,38.00
2018-02-25T01:27:17.231Z,37.70
2018-02-25T01:29:43.813Z,37.70
2018-02-25T01:32:11.133Z,38.00
2018-02-25T01:34:37.955Z,38.00
2018-02-25T01:37:05.146Z,37.80
2018-02-25T01:39:31.720Z,37.90
2018-02-25T01:41:59.041Z,38.30
2018-02-25T01:44:25.589Z,38.20
2018-02-25T01:46:52.195Z,37.70
2018-02-25T01:49:18.823Z,38.10
2018-02-25T01:51:45.458Z,38.20
2018-02-25T01:54:12.033Z,37.90
2018-02-25T01:56:38.590Z,37.70
2018-02-25T01:59:05.894Z,37.80
2018-02-25T02:01:32.490Z,37.90
2018-02-25T02:03:59.158Z,37.70
2018-02-25T02:06:25.797Z,38.00
2018-02-25T02:08:52.376Z,37.00
2018-02-25T02:11:18.976Z,37.50
2018-02-25T02:13:45.546Z,37.20
2018-02-25T02:16:12.089Z,37.50
2018-02-25T02:18:38.639Z,37.70
2018-02-25T02:21:05.938Z,37.40
2018-02-25T02:23:32.540Z,37.40
2018-02-25T02:25:59.097Z,37.20
2018-02-25T02:28:25.664Z,37.10
2018-02-25T02:30:52.231Z,37.20
2018-02-25T02:33:19.587Z,37.40
2018-02-25T02:35:46.912Z,37.10
2018-02-25T02:38:13.482Z,37.10
2018-02-25T02:40:40.096Z,36.90
2018-02-25T02:43:06.636Z,36.60
2018-02-25T02:45:33.263Z,36.90
2018-02-25T02:47:59.830Z,37.20
2018-02-25T02:50:26.431Z,37.00
2018-02-25T02:52:52.994Z,37.20
2018-02-25T02:55:20.294Z,37.60
2018-02-25T02:57:46.827Z,37.50
2018-02-25T03:00:14.333Z,37.30
2018-02-25T03:02:41.695Z,37.10
2018-02-25T03:05:08.997Z,36.60
2018-02-25T03:07:35.568Z,36.60
2018-02-25T03:10:02.921Z,37.20
2018-02-25T03:12:30.264Z,36.70
2018-02-25T03:14:57.574Z,36.60
2018-02-25T03:17:24.150Z,36.60
2018-02-25T03:19:51.556Z,37.20
2018-02-25T03:22:18.139Z,37.20
2018-02-25T03:24:44.841Z,37.20
2018-02-25T03:27:11.630Z,37.10
2018-02-25T03:29:38.212Z,37.50
2018-02-25T03:32:04.782Z,37.40
2018-02-25T03:34:31.386Z,37.80
2018-02-25T03:36:58.890Z,37.10
2018-02-25T03:39:25.538Z,37.50
2018-02-25T03:41:52.853Z,37.10
2018-02-25T03:44:19.410Z,37.20
2018-02-25T03:46:45.969Z,37.30
2018-02-25T03:49:12.542Z,37.10
2018-02-25T03:51:39.094Z,37.40
2018-02-25T03:54:05.650Z,37.00
2018-02-25T03:56:32.246Z,37.20
2018-02-25T03:58:59.534Z,37.20
2018-02-25T04:01:26.082Z,37.20
2018-02-25T04:03:52.953Z,37.80
2018-02-25T04:06:19.483Z,37.80
2018-02-25T04:08:46.070Z,37.70
2018-02-25T04:11:12.659Z,37.90
2018-02-25T04:13:40.770Z,38.00
2018-02-25T04:16:07.333Z,38.10
2018-02-25T04:18:33.916Z,38.00
2018-02-25T04:21:01.203Z,38.10
2018-02-25T04:23:27.751Z,38.00
2018-02-25T04:25:54.286Z,38.20
2018-02-25T04:28:20.821Z,38.30
2018-02-25T04:30:47.383Z,38.30
2018-02-25T04:33:14.558Z,38.50
2018-02-25T04:35:41.869Z,38.40
2018-02-25T04:38:08.450Z,38.40
2018-02-25T04:40:36.017Z,38.40
2018-02-25T04:43:04.248Z,38.30
2018-02-25T04:45:30.792Z,38.20
2018-02-25T04:47:57.355Z,38.40
2018-02-25T04:50:24.665Z,38.90
2018-02-25T04:52:51.202Z,38.90
2018-02-25T04:55:17.780Z,38.70
2018-02-25T04:57:45.104Z,38.90
2018-02-25T05:00:11.663Z,38.90
2018-02-25T05:02:38.289Z,38.70
2018-02-25T05:05:04.830Z,39.00
2018-02-25T05:20:33.867Z,39.30
2018-02-25T05:23:00.423Z,38.50
2018-02-25T05:25:27.014Z,38.50
2018-02-25T05:27:53.595Z,38.60
2018-02-25T05:30:20.209Z,39.40
2018-02-25T05:32:46.742Z,39.40
2018-02-25T05:35:13.299Z,39.60
2018-02-25T05:37:39.847Z,39.50
2018-02-25T05:40:06.766Z,39.30
2018-02-25T05:42:34.153Z,39.60
2018-02-25T05:45:01.467Z,39.70
2018-02-25T05:47:28.274Z,39.60
2018-02-25T05:49:54.830Z,39.90
2018-02-25T05:52:21.382Z,39.90
2018-02-25T05:54:47.964Z,39.90
2018-02-25T05:57:15.234Z,39.90
2018-02-25T05:59:42.647Z,39.80
2018-02-25T06:02:09.966Z,39.80
2018-02-25T06:04:36.514Z,39.80
2018-02-25T06:07:03.093Z,39.80
2018-02-25T06:09:29.641Z,39.80
2018-02-25T06:11:56.536Z,39.80
2018-02-25T06:14:24.801Z,40.10
2018-02-25T06:16:51.350Z,40.00
2018-02-25T06:19:17.923Z,39.80
2018-02-25T06:21:44.499Z,39.70
2018-02-25T06:24:11.799Z,40.00
2018-02-25T06:26:38.349Z,39.90
2018-02-25T06:29:04.994Z,40.40
2018-02-25T06:31:32.303Z,40.50
2018-02-25T06:33:58.875Z,40.40
2018-02-25T06:36:25.425Z,40.30
2018-02-25T06:38:52.765Z,40.20
2018-02-25T06:41:20.083Z,40.60
2018-02-25T06:43:46.655Z,39.80
2018-02-25T06:46:13.202Z,40.10
2018-02-25T06:48:40.671Z,39.80
2018-02-25T06:51:07.963Z,39.80
2018-02-25T06:53:34.514Z,39.80
2018-02-25T06:56:01.196Z,39.80
2018-02-25T06:58:27.783Z,39.80
2018-02-25T07:00:54.339Z,39.80
2018-02-25T07:03:21.783Z,40.00
2018-02-25T07:05:48.336Z,39.90
2018-02-25T07:08:14.978Z,40.00
2018-02-25T07:10:41.560Z,40.00
2018-02-25T07:13:08.511Z,39.00
2018-02-25T07:15:35.071Z,39.00
2018-02-25T07:18:01.616Z,38.30
2018-02-25T07:20:28.272Z,35.90
2018-02-25T07:22:55.554Z,33.80
2018-02-25T07:25:22.095Z,33.80
2018-02-25T07:27:48.744Z,33.00
2018-02-25T07:30:16.003Z,33.50
2018-02-25T07:32:42.961Z,33.40
2018-02-25T07:35:09.571Z,32.80
2018-02-25T07:37:36.877Z,32.30
2018-02-25T07:40:03.615Z,32.20
2018-02-25T07:42:30.250Z,32.10
2018-02-25T07:44:56.795Z,32.10
2018-02-25T07:47:24.110Z,33.00
2018-02-25T07:49:50.659Z,32.20
2018-02-25T07:52:17.513Z,32.10
2018-02-25T07:54:44.058Z,32.20
2018-02-25T07:57:10.650Z,31.90
2018-02-25T07:59:37.283Z,31.40
2018-02-25T08:02:03.862Z,30.50
2018-02-25T08:04:30.538Z,30.50
2018-02-25T08:06:57.119Z,30.30
2018-02-25T08:09:23.690Z,28.90
2018-02-25T08:11:51.027Z,28.30
2018-02-25T08:14:18.873Z,28.40
2018-02-25T08:16:45.461Z,26.20
2018-02-25T08:19:12.917Z,23.80
2018-02-25T08:21:40.351Z,22.10
2018-02-25T08:24:06.908Z,22.10
2018-02-25T08:26:35.231Z,20.90
2018-02-25T08:29:01.792Z,20.90
2018-02-25T08:31:28.376Z,20.80
2018-02-25T08:33:54.946Z,19.10
2018-02-25T08:36:21.491Z,20.00
2018-02-25T08:38:48.106Z,20.10
2018-02-25T08:41:14.709Z,19.90
2018-02-25T08:43:42.078Z,20.10
2018-02-25T08:46:08.958Z,20.10
2018-02-25T08:48:35.531Z,20.00
2018-02-25T08:51:02.868Z,19.50
2018-02-25T08:53:30.193Z,19.00
2018-02-25T08:55:57.606Z,19.00
2018-02-25T08:58:24.211Z,17.80
2018-02-25T09:00:50.781Z,17.90
2018-02-25T09:03:17.387Z,17.60
2018-02-25T09:05:43.999Z,16.60
2018-02-25T09:08:11.417Z,15.60
2018-02-25T09:10:38.034Z,15.50
2018-02-25T09:13:05.472Z,16.40
2018-02-25T09:15:32.025Z,16.40
2018-02-25T09:17:59.331Z,17.20
2018-02-25T09:20:25.924Z,17.10
2018-02-25T09:22:52.608Z,17.80
2018-02-25T09:25:19.230Z,17.20
2018-02-25T09:27:45.835Z,17.30
2018-02-25T09:30:12.415Z,18.40
2018-02-25T09:32:38.996Z,17.20
2018-02-25T09:35:06.419Z,15.50
2018-02-25T09:37:33.760Z,15.30
2018-02-25T09:40:00.609Z,15.10
2018-02-25T09:42:27.274Z,14.50
2018-02-25T09:44:53.859Z,14.20
2018-02-25T09:47:20.448Z,14.30
2018-02-25T09:49:47.766Z,11.20
2018-02-25T09:52:14.472Z,11.20
2018-02-25T09:54:41.035Z,9.70
2018-02-25T09:57:07.638Z,10.80
2018-02-25T09:59:34.195Z,9.20
2018-02-25T10:02:00.794Z,9.30
2018-02-25T10:04:28.176Z,10.30
2018-02-25T10:06:55.030Z,10.30
2018-02-25T10:09:21.621Z,10.50
2018-02-25T10:11:48.971Z,10.90
2018-02-25T10:14:16.375Z,11.20
2018-02-25T10:16:43.641Z,12.00
2018-02-25T10:19:10.208Z,11.30
2018-02-25T10:21:36.825Z,11.20
2018-02-25T10:24:03.409Z,10.10
2018-02-25T10:26:30.738Z,10.30
2018-02-25T10:28:57.311Z,10.30
2018-02-25T10:31:23.950Z,10.20
2018-02-25T10:33:50.508Z,9.90
2018-02-25T10:36:17.159Z,11.70
2018-02-25T10:38:43.770Z,9.80
2018-02-25T10:41:10.340Z,9.90
2018-02-25T10:43:36.936Z,10.40
2018-02-25T10:46:03.539Z,11.00
2018-02-25T10:48:30.096Z,10.30
2018-02-25T10:50:57.474Z,10.50
2018-02-25T10:53:24.050Z,10.50
2018-02-25T10:55:51.406Z,10.90
2018-02-25T10:58:18.078Z,10.80
2018-02-25T11:00:50.742Z,9.80
2018-02-25T11:03:17.312Z,10.40
2018-02-25T11:05:43.867Z,10.40
2018-02-25T11:08:10.455Z,10.20
2018-02-25T11:10:37.775Z,10.30
2018-02-25T11:13:04.407Z,10.30
2018-02-25T11:15:31.055Z,11.40
2018-02-25T11:17:57.616Z,13.50
2018-02-25T11:20:24.982Z,14.20
2018-02-25T11:22:52.698Z,14.20
2018-02-25T11:25:19.371Z,14.10
2018-02-25T11:27:45.973Z,15.00
2018-02-25T11:30:12.601Z,15.80
2018-02-25T11:32:39.517Z,15.30
2018-02-25T11:35:06.284Z,14.90
2018-02-25T11:37:32.892Z,15.80
2018-02-25T11:39:59.463Z,15.80
2018-02-25T11:42:26.112Z,15.30
2018-02-25T11:44:52.739Z,15.70
2018-02-25T11:47:20.055Z,15.80
2018-02-25T11:49:46.642Z,15.80
2018-02-25T11:52:13.283Z,16.50
2018-02-25T11:54:40.658Z,17.20
2018-02-25T11:57:07.223Z,17.10
2018-02-25T11:59:34.592Z,16.40
2018-02-25T12:02:01.183Z,16.30
2018-02-25T12:04:28.506Z,15.80
2018-02-25T12:06:55.117Z,15.80
2018-02-25T12:09:21.764Z,17.50
2018-02-25T12:11:49.195Z,17.10
2018-02-25T12:14:15.898Z,17.00
2018-02-25T12:16:42.475Z,16.80
2018-02-25T12:19:09.027Z,17.60
2018-02-25T12:21:35.642Z,17.60
2018-02-25T12:24:02.318Z,17.40
2018-02-25T12:26:28.922Z,17.30
2018-02-25T12:28:55.492Z,18.00
2018-02-25T12:31:22.117Z,18.50
2018-02-25T12:33:48.688Z,18.00
2018-02-25T12:36:15.305Z,18.50
2018-02-25T12:38:41.879Z,17.20
2018-02-25T12:41:08.498Z,15.90
2018-02-25T12:43:35.121Z,17.40
2018-02-25T12:46:01.790Z,17.30
2018-02-25T12:48:28.368Z,16.20
2018-02-25T12:50:55.021Z,16.80
2018-02-25T12:53:21.720Z,17.00
2018-02-25T12:55:49.374Z,15.60
2018-02-25T12:58:16.680Z,16.60
2018-02-25T13:00:43.261Z,16.50
2018-02-25T13:03:10.646Z,14.50
2018-02-25T13:05:37.214Z,14.50
2018-02-25T13:08:03.816Z,16.70
2018-02-25T13:10:30.431Z,15.20
2018-02-25T13:12:57.770Z,13.50
2018-02-25T13:15:25.346Z,16.00
2018-02-25T13:17:52.687Z,14.30
2018-02-25T13:20:19.298Z,14.30
2018-02-25T13:22:45.787Z,15.30
2018-02-25T13:25:12.453Z,14.70
2018-02-25T13:27:39.046Z,14.90
2018-02-25T13:30:06.379Z,17.30
2018-02-25T13:32:33.031Z,17.30
2018-02-25T13:35:00.342Z,17.30
2018-02-25T13:37:26.927Z,17.20
2018-02-25T13:39:53.822Z,17.10
2018-02-25T13:42:20.468Z,15.90
2018-02-25T13:44:47.058Z,16.20
2018-02-25T13:47:13.678Z,16.80
2018-02-25T13:49:41.019Z,16.70
2018-02-25T13:52:07.606Z,16.70
2018-02-25T13:54:34.179Z,15.80
2018-02-25T13:57:00.767Z,14.60
2018-02-25T13:59:27.395Z,15.30
2018-02-25T14:01:54.015Z,16.90
2018-02-25T14:04:21.334Z,14.80
2018-02-25T14:06:47.789Z,14.70
2018-02-25T14:09:14.413Z,14.40
2018-02-25T14:11:41.751Z,15.50
2018-02-25T14:14:08.363Z,15.50
2018-02-25T14:16:34.971Z,15.60
2018-02-25T14:19:01.571Z,14.70
2018-02-25T14:21:28.251Z,15.40
2018-02-25T14:23:55.529Z,14.90
2018-02-25T14:26:22.113Z,14.90
2018-02-25T14:28:48.706Z,15.00
2018-02-25T14:31:15.542Z,13.60
2018-02-25T14:33:42.167Z,15.80
2018-02-25T14:36:08.803Z,15.60
2018-02-25T14:38:35.461Z,14.60
2018-02-25T14:41:02.055Z,13.80
2018-02-25T14:43:29.426Z,14.30
2018-02-25T14:45:56.038Z,14.20
2018-02-25T14:48:22.738Z,13.60
2018-02-25T14:50:49.296Z,14.50
2018-02-25T14:53:16.642Z,15.00
2018-02-25T14:55:43.246Z,14.90
2018-02-25T14:58:09.854Z,16.10
2018-02-25T15:00:37.205Z,16.30
2018-02-25T15:03:03.822Z,16.30
2018-02-25T15:05:30.438Z,15.20
2018-02-25T15:07:56.988Z,17.60
2018-02-25T15:10:23.615Z,17.30
2018-02-25T15:12:50.213Z,16.50
2018-02-25T15:15:16.827Z,14.50
2018-02-25T15:17:44.224Z,14.50
2018-02-25T15:20:11.264Z,14.40
2018-02-25T15:22:37.904Z,14.10
2018-02-25T15:25:04.466Z,16.30
2018-02-25T15:27:31.124Z,14.90
2018-02-25T15:29:58.531Z,15.80
2018-02-25T15:32:25.160Z,15.80
2018-02-25T15:34:51.771Z,14.20
2018-02-25T15:37:18.790Z,15.80
2018-02-25T15:39:45.350Z,14.60
2018-02-25T15:42:11.974Z,14.10
2018-02-25T15:44:38.655Z,15.40
2018-02-25T15:47:05.258Z,14.40
2018-02-25T15:49:32.151Z,15.10
2018-02-25T15:51:58.734Z,16.30
2018-02-25T15:54:25.310Z,15.90
2018-02-25T15:56:51.932Z,16.50
2018-02-25T15:59:19.252Z,16.00
2018-02-25T16:01:45.879Z,16.00
2018-02-25T16:04:12.548Z,17.10
2018-02-25T16:06:39.188Z,16.10
2018-02-25T16:09:06.556Z,16.90
2018-02-25T16:11:33.181Z,16.80
2018-02-25T16:14:00.522Z,16.40
2018-02-25T16:16:27.437Z,16.90
2018-02-25T16:18:54.127Z,17.30
2018-02-25T16:21:20.695Z,16.30
2018-02-25T16:23:47.311Z,16.90
2018-02-25T16:26:13.987Z,16.90
2018-02-25T16:28:40.579Z,16.80
2018-02-25T16:44:01.917Z,18.50
2018-02-25T16:46:28.796Z,18.70
2018-02-25T16:48:56.120Z,18.30
2018-02-25T16:51:23.473Z,17.90
2018-02-25T16:53:50.060Z,17.80
2018-02-25T16:56:16.737Z,17.70
2018-02-25T16:58:43.374Z,19.10
2018-02-25T17:01:09.985Z,18.90
2018-02-25T17:03:36.632Z,19.00
2018-02-25T17:06:03.235Z,19.40
2018-02-25T17:08:30.594Z,20.40
2018-02-25T17:10:58.044Z,20.20
2018-02-25T17:13:24.615Z,20.20
2018-02-25T17:15:51.263Z,20.60
2018-02-25T17:18:17.874Z,20.60
2018-02-25T17:20:44.487Z,20.70
2018-02-25T17:23:11.901Z,21.50
2018-02-25T17:25:38.507Z,21.40
2018-02-25T17:28:05.875Z,22.30
2018-02-25T17:30:32.658Z,22.30
2018-02-25T17:33:00.178Z,22.40
2018-02-25T17:35:26.808Z,22.70
2018-02-25T17:37:53.482Z,22.30
2018-02-25T17:40:20.401Z,22.90
2018-02-25T17:42:47.054Z,23.40
2018-02-25T17:45:13.684Z,23.30
2018-02-25T17:47:40.324Z,23.50
2018-02-25T17:50:07.011Z,23.90
2018-02-25T17:52:34.373Z,24.40
2018-02-25T17:55:01.024Z,24.40
2018-02-25T17:57:28.379Z,25.40
2018-02-25T17:59:55.094Z,24.80
2018-02-25T18:02:21.820Z,24.80
2018-02-25T18:04:48.488Z,24.80
2018-02-25T18:07:15.108Z,25.40
2018-02-25T18:09:42.457Z,25.00
2018-02-25T18:12:09.071Z,24.90
2018-02-25T18:14:35.659Z,25.40
2018-02-25T18:17:03.032Z,25.70
2018-02-25T18:19:29.693Z,25.50
2018-02-25T18:21:56.337Z,26.30
2018-02-25T18:24:22.950Z,26.10
2018-02-25T18:26:49.590Z,26.40
2018-02-25T18:29:16.216Z,26.30
2018-02-25T18:31:42.811Z,26.10
2018-02-25T18:34:09.461Z,26.50
2018-02-25T18:36:36.166Z,26.40
2018-02-25T18:39:02.871Z,26.40
2018-02-25T18:41:29.624Z,26.60
2018-02-25T18:43:56.530Z,26.60
2018-02-25T18:46:23.872Z,26.90
2018-02-25T18:48:50.443Z,26.90
2018-02-25T18:51:17.386Z,27.20
2018-02-25T18:53:43.948Z,27.40
2018-02-25T18:56:10.557Z,27.80
2018-02-25T18:58:37.918Z,27.70
2018-02-25T19:01:04.519Z,27.70
2018-02-25T19:03:31.160Z,27.40
2018-02-25T19:05:58.519Z,27.30
2018-02-25T19:08:26.166Z,27.90
2018-02-25T19:10:52.753Z,27.90
2018-02-25T19:13:19.365Z,28.20
2018-02-25T19:15:46.707Z,28.00
2018-02-25T19:18:14.056Z,27.70
2018-02-25T19:20:41.417Z,28.00
2018-02-25T19:23:08.056Z,27.90
2018-02-25T19:25:35.394Z,28.00
2018-02-25T19:28:02.806Z,28.00
2018-02-25T19:30:29.411Z,28.00
2018-02-25T19:32:56.808Z,28.50
2018-02-25T19:35:23.438Z,28.50
2018-02-25T19:37:56.043Z,28.40
2018-02-25T19:40:28.522Z,28.40
2018-02-25T19:42:55.488Z,28.10
2018-02-25T19:45:22.142Z,28.50
2018-02-25T19:47:50.460Z,28.40
2018-02-25T19:50:17.095Z,28.40
2018-02-25T19:52:43.914Z,28.30
2018-02-25T19:55:10.516Z,28.40
2018-02-25T19:57:37.912Z,28.50
2018-02-25T20:00:04.563Z,28.50
2018-02-25T20:02:31.229Z,28.90
2018-02-25T20:04:57.850Z,28.80
2018-02-25T20:07:24.520Z,28.70
2018-02-25T20:09:51.152Z,28.70
2018-02-25T20:12:18.095Z,28.70
2018-02-25T20:14:44.723Z,29.10
2018-02-25T20:17:12.103Z,29.50
2018-02-25T20:19:39.463Z,29.50
2018-02-25T20:22:06.131Z,29.40
2018-02-25T20:24:33.099Z,29.40
2018-02-25T20:26:59.734Z,29.20
2018-02-25T20:29:26.439Z,29.50
2018-02-25T20:31:53.136Z,29.50
2018-02-25T20:34:19.747Z,29.00
2018-02-25T20:36:46.398Z,29.00
2018-02-25T20:39:13.059Z,29.00
2018-02-25T20:41:39.695Z,28.90
2018-02-25T20:44:07.064Z,28.60
2018-02-25T20:46:34.439Z,28.00
2018-02-25T20:49:01.248Z,28.00
2018-02-25T20:51:28.692Z,27.70
2018-02-25T20:53:56.105Z,27.40
2018-02-25T20:56:22.787Z,27.50
2018-02-25T20:58:50.145Z,27.40
2018-02-25T21:01:17.162Z,27.40
2018-02-25T21:03:43.710Z,27.40
2018-02-25T21:06:10.340Z,27.40
2018-02-25T21:08:37.007Z,27.30
2018-02-25T21:11:03.617Z,27.90
2018-02-25T21:13:30.247Z,27.50
2018-02-25T21:15:56.847Z,27.90
2018-02-25T21:18:24.224Z,27.60
2018-02-25T21:20:50.838Z,27.50
2018-02-25T21:23:17.464Z,27.20
2018-02-25T21:25:45.066Z,27.70
2018-02-25T21:28:11.662Z,27.60
2018-02-25T21:30:38.966Z,27.50
2018-02-25T21:33:05.600Z,27.40
2018-02-25T21:35:32.188Z,27.50
2018-02-25T21:37:59.544Z,27.50
2018-02-25T21:40:26.914Z,27.70
2018-02-25T21:42:54.250Z,27.80
2018-02-25T21:45:21.607Z,28.20
2018-02-25T21:47:48.946Z,28.40
2018-02-25T21:50:15.502Z,28.30
2018-02-25T21:52:44.751Z,27.80
2018-02-25T21:55:11.357Z,27.80
2018-02-25T21:57:44.054Z,27.30
2018-02-25T22:00:12.491Z,27.80
2018-02-25T22:02:45.902Z,27.80
2018-02-25T22:05:12.521Z,27.70
2018-02-25T22:07:39.869Z,28.00
2018-02-25T22:10:06.470Z,28.00
2018-02-25T22:12:33.066Z,28.60
2018-02-25T22:14:59.662Z,28.50
2018-02-25T22:17:58.004Z,28.60
2018-02-25T22:20:24.610Z,28.10
2018-02-25T22:22:51.929Z,28.80
2018-02-25T22:25:18.966Z,28.70
2018-02-25T22:27:45.565Z,28.60
2018-02-25T22:30:12.111Z,28.80
2018-02-25T22:32:38.794Z,28.40
2018-02-25T22:35:05.348Z,28.50
2018-02-25T22:37:31.937Z,28.40
2018-02-25T22:39:58.478Z,28.90
2018-02-25T22:42:25.134Z,28.00
2018-02-25T22:44:51.710Z,27.50
2018-02-25T22:47:19.042Z,27.30
2018-02-25T22:49:45.598Z,27.50
2018-02-25T22:52:12.910Z,27.90
2018-02-25T22:54:39.478Z,27.90
2018-02-25T22:57:06.038Z,27.90
2018-02-25T22:59:32.606Z,28.10
2018-02-25T23:01:59.221Z,28.50
2018-02-25T23:04:26.088Z,28.20
2018-02-25T23:06:52.654Z,28.00
2018-02-25T23:09:19.194Z,28.30
2018-02-25T23:11:45.782Z,28.60
2018-02-25T23:14:12.347Z,28.40
2018-02-25T23:16:39.659Z,28.30
2018-02-25T23:19:06.304Z,28.30
2018-02-25T23:21:32.842Z,28.40
2018-02-25T23:23:59.496Z,28.40
2018-02-25T23:26:26.093Z,28.50
2018-02-25T23:28:53.365Z,29.50
2018-02-25T23:31:19.985Z,29.40
2018-02-25T23:33:46.602Z,29.00
2018-02-25T23:36:13.126Z,28.90
2018-02-25T23:38:39.787Z,30.00
2018-02-25T23:41:07.092Z,29.30
2018-02-25T23:43:33.669Z,29.30
2018-02-25T23:46:00.946Z,29.10
2018-02-25T23:48:27.505Z,29.10
2018-02-25T23:50:54.195Z,28.90
2018-02-25T23:53:21.548Z,29.20
2018-02-25T23:55:48.849Z,29.60
2018-02-25T23:58:15.702Z,29.50
